sensor_id;sensor_type;location;lat;lon;timestamp;pressure;altitude;pressure_sealevel;temperature;humidity
26192;BME280;13935;55.672;37.764;2024-01-25T00:01:17;98932.28;;;2.68;100.00
26192;BME280;13935;55.672;37.764;2024-01-25T00:04:02;98922.56;;;2.52;100.00
26192;BME280;13935;55.672;37.764;2024-01-25T00:06:41;98920.41;;;2.42;100.00
26192;BME280;13935;55.672;37.764;2024-01-25T00:09:16;98916.88;;;2.41;100.00
26192;BME280;13935;55.672;37.764;2024-01-25T00:14:58;98911.47;;;2.60;100.00
26192;BME280;13935;55.672;37.764;2024-01-25T00:16:40;98909.19;;;2.47;100.00
26192;BME280;13935;55.672;37.764;2024-01-25T00:18:27;98912.66;;;2.44;100.00
26192;BME280;13935;55.672;37.764;2024-01-25T00:20:58;98910.69;;;2.44;100.00
26192;BME280;13935;55.672;37.764;2024-01-25T00:24:23;98897.50;;;2.46;100.00
26192;BME280;13935;55.672;37.764;2024-01-25T00:26:38;98891.31;;;2.49;100.00
26192;BME280;13935;55.672;37.764;2024-01-25T00:29:34;98892.41;;;2.45;100.00
26192;BME280;13935;55.672;37.764;2024-01-25T00:32:02;98882.06;;;2.54;100.00
26192;BME280;13935;55.672;37.764;2024-01-25T00:34:28;98883.56;;;2.51;100.00
26192;BME280;13935;55.672;37.764;2024-01-25T00:36:56;98879.19;;;2.47;100.00
26192;BME280;13935;55.672;37.764;2024-01-25T00:38:19;98880.16;;;2.39;100.00
26192;BME280;13935;55.672;37.764;2024-01-25T00:43:29;98889.78;;;2.33;100.00
26192;BME280;13935;55.672;37.764;2024-01-25T00:45:56;98878.19;;;2.36;100.00
26192;BME280;13935;55.672;37.764;2024-01-25T00:48:27;98880.16;;;2.39;100.00
26192;BME280;13935;55.672;37.764;2024-01-25T00:50:53;98884.94;;;2.42;100.00
26192;BME280;13935;55.672;37.764;2024-01-25T00:53:28;98878.94;;;2.36;100.00
26192;BME280;13935;55.672;37.764;2024-01-25T00:55:37;98870.44;;;2.38;100.00
26192;BME280;13935;55.672;37.764;2024-01-25T00:57:41;98868.47;;;2.38;100.00
26192;BME280;13935;55.672;37.764;2024-01-25T00:59:39;98861.66;;;2.29;100.00
26192;BME280;13935;55.672;37.764;2024-01-25T01:05:05;98857.06;;;2.33;100.00
26192;BME280;13935;55.672;37.764;2024-01-25T01:17:21;98836.38;;;2.13;100.00
26192;BME280;13935;55.672;37.764;2024-01-25T01:18:58;98841.09;;;2.16;100.00
26192;BME280;13935;55.672;37.764;2024-01-25T01:21:25;98837.31;;;2.20;100.00
26192;BME280;13935;55.672;37.764;2024-01-25T01:23:03;98827.34;;;2.28;100.00
26192;BME280;13935;55.672;37.764;2024-01-25T01:24:51;98824.03;;;2.19;100.00
26192;BME280;13935;55.672;37.764;2024-01-25T01:26:43;98822.53;;;2.21;100.00
26192;BME280;13935;55.672;37.764;2024-01-25T01:28:18;98824.31;;;2.33;100.00
26192;BME280;13935;55.672;37.764;2024-01-25T01:30:07;98820.09;;;2.16;100.00
26192;BME280;13935;55.672;37.764;2024-01-25T01:31:39;98817.94;;;2.25;100.00
26192;BME280;13935;55.672;37.764;2024-01-25T01:33:09;98819.66;;;2.14;100.00
26192;BME280;13935;55.672;37.764;2024-01-25T01:34:30;98814.91;;;2.11;100.00
26192;BME280;13935;55.672;37.764;2024-01-25T01:35:43;98810.53;;;2.07;100.00
26192;BME280;13935;55.672;37.764;2024-01-25T01:37:09;98812.97;;;2.12;100.00
26192;BME280;13935;55.672;37.764;2024-01-25T01:38:27;98812.03;;;2.23;100.00
26192;BME280;13935;55.672;37.764;2024-01-25T01:40:39;98810.03;;;2.20;100.00
26192;BME280;13935;55.672;37.764;2024-01-25T01:43:02;98808.22;;;2.09;100.00
26192;BME280;13935;55.672;37.764;2024-01-25T01:44:42;98809.97;;;2.17;100.00
26192;BME280;13935;55.672;37.764;2024-01-25T01:46:11;98807.75;;;2.22;100.00
26192;BME280;13935;55.672;37.764;2024-01-25T01:51:13;98805.72;;;2.19;100.00
26192;BME280;13935;55.672;37.764;2024-01-25T01:54:32;98794.59;;;2.28;100.00
26192;BME280;13935;55.672;37.764;2024-01-25T01:56:56;98801.50;;;2.22;100.00
26192;BME280;13935;55.672;37.764;2024-01-25T02:07:08;98802.06;;;2.12;100.00
26192;BME280;13935;55.672;37.764;2024-01-25T02:12:14;98800.56;;;2.14;100.00
26192;BME280;13935;55.672;37.764;2024-01-25T02:15:00;98801.34;;;2.15;100.00
26192;BME280;13935;55.672;37.764;2024-01-25T02:18:01;98805.78;;;2.04;100.00
26192;BME280;13935;55.672;37.764;2024-01-25T02:20:03;98808.81;;;1.99;100.00
26192;BME280;13935;55.672;37.764;2024-01-25T02:22:25;98803.47;;;1.87;100.00
26192;BME280;13935;55.672;37.764;2024-01-25T02:35:19;98805.75;;;1.85;100.00
26192;BME280;13935;55.672;37.764;2024-01-25T02:38:16;98807.19;;;1.79;100.00
26192;BME280;13935;55.672;37.764;2024-01-25T02:40:26;98801.72;;;1.79;100.00
26192;BME280;13935;55.672;37.764;2024-01-25T02:42:43;98807.19;;;1.79;100.00
26192;BME280;13935;55.672;37.764;2024-01-25T02:48:54;98792.97;;;1.89;100.00
26192;BME280;13935;55.672;37.764;2024-01-25T02:50:12;98796.97;;;1.92;100.00
26192;BME280;13935;55.672;37.764;2024-01-25T02:51:21;98802.19;;;1.81;100.00
26192;BME280;13935;55.672;37.764;2024-01-25T02:52:34;98793.44;;;1.91;100.00
26192;BME280;13935;55.672;37.764;2024-01-25T02:53:45;98792.97;;;1.89;100.00
26192;BME280;13935;55.672;37.764;2024-01-25T02:55:19;98790.13;;;1.82;100.00
26192;BME280;13935;55.672;37.764;2024-01-25T02:56:44;98786.75;;;1.89;100.00
26192;BME280;13935;55.672;37.764;2024-01-25T02:58:00;98799.25;;;1.90;100.00
26192;BME280;13935;55.672;37.764;2024-01-25T02:59:35;98793.44;;;1.91;100.00
26192;BME280;13935;55.672;37.764;2024-01-25T03:00:42;98794.41;;;1.83;100.00
26192;BME280;13935;55.672;37.764;2024-01-25T03:02:00;98795.50;;;1.79;100.00
26192;BME280;13935;55.672;37.764;2024-01-25T03:03:09;98791.19;;;1.78;100.00
26192;BME280;13935;55.672;37.764;2024-01-25T03:04:14;98787.41;;;1.82;100.00
26192;BME280;13935;55.672;37.764;2024-01-25T03:05:25;98791.97;;;1.78;100.00
26192;BME280;13935;55.672;37.764;2024-01-25T03:07:54;98785.38;;;1.79;100.00
26192;BME280;13935;55.672;37.764;2024-01-25T03:10:14;98778.34;;;1.78;100.00
26192;BME280;13935;55.672;37.764;2024-01-25T03:17:47;98778.22;;;1.90;100.00
26192;BME280;13935;55.672;37.764;2024-01-25T03:24:22;98764.84;;;1.66;100.00
26192;BME280;13935;55.672;37.764;2024-01-25T03:27:24;98765.38;;;1.72;100.00
26192;BME280;13935;55.672;37.764;2024-01-25T03:30:21;98763.84;;;1.74;100.00
26192;BME280;13935;55.672;37.764;2024-01-25T03:32:38;98756.66;;;1.66;100.00
26192;BME280;13935;55.672;37.764;2024-01-25T03:35:00;98766.88;;;1.69;100.00
26192;BME280;13935;55.672;37.764;2024-01-25T03:36:49;98758.69;;;1.69;100.00
26192;BME280;13935;55.672;37.764;2024-01-25T03:37:59;98750.69;;;1.76;100.00
26192;BME280;13935;55.672;37.764;2024-01-25T03:39:04;98758.94;;;1.64;100.00
26192;BME280;13935;55.672;37.764;2024-01-25T03:40:14;98758.81;;;1.57;100.00
26192;BME280;13935;55.672;37.764;2024-01-25T03:41:24;98751.94;;;1.63;100.00
26192;BME280;13935;55.672;37.764;2024-01-25T03:42:31;98749.34;;;1.51;100.00
26192;BME280;13935;55.672;37.764;2024-01-25T03:43:38;98754.38;;;1.68;100.00
26192;BME280;13935;55.672;37.764;2024-01-25T03:44:46;98755.69;;;1.74;100.00
26192;BME280;13935;55.672;37.764;2024-01-25T03:45:51;98750.34;;;1.62;100.00
26192;BME280;13935;55.672;37.764;2024-01-25T03:47:04;98751.78;;;1.56;100.00
26192;BME280;13935;55.672;37.764;2024-01-25T03:48:11;98746.69;;;1.55;100.00
26192;BME280;13935;55.672;37.764;2024-01-25T03:49:30;98760.38;;;1.58;100.00
26192;BME280;13935;55.672;37.764;2024-01-25T03:51:52;98736.06;;;1.50;100.00
26192;BME280;13935;55.672;37.764;2024-01-25T03:53:11;98739.59;;;1.50;100.00
26192;BME280;13935;55.672;37.764;2024-01-25T03:54:25;98748.69;;;1.58;100.00
26192;BME280;13935;55.672;37.764;2024-01-25T03:55:48;98746.88;;;1.46;100.00
26192;BME280;13935;55.672;37.764;2024-01-25T03:57:51;98741.56;;;1.53;100.00
26192;BME280;13935;55.672;37.764;2024-01-25T03:59:29;98737.63;;;1.51;100.00
26192;BME280;13935;55.672;37.764;2024-01-25T04:00:51;98737.72;;;1.54;100.00
26192;BME280;13935;55.672;37.764;2024-01-25T04:02:11;98740.16;;;1.59;100.00
26192;BME280;13935;55.672;37.764;2024-01-25T04:03:38;98732.56;;;1.49;100.00
26192;BME280;13935;55.672;37.764;2024-01-25T04:05:14;98721.28;;;1.51;100.00
26192;BME280;13935;55.672;37.764;2024-01-25T04:06:57;98723.56;;;1.49;100.00
26192;BME280;13935;55.672;37.764;2024-01-25T04:08:43;98720.44;;;1.47;100.00
26192;BME280;13935;55.672;37.764;2024-01-25T04:10:12;98723.53;;;1.45;100.00
26192;BME280;13935;55.672;37.764;2024-01-25T04:11:50;98718.41;;;1.44;100.00
26192;BME280;13935;55.672;37.764;2024-01-25T04:13:12;98714.00;;;1.39;100.00
26192;BME280;13935;55.672;37.764;2024-01-25T04:15:09;98719.38;;;1.51;100.00
26192;BME280;13935;55.672;37.764;2024-01-25T04:16:26;98722.19;;;1.55;100.00
26192;BME280;13935;55.672;37.764;2024-01-25T04:17:36;98720.50;;;1.50;100.00
26192;BME280;13935;55.672;37.764;2024-01-25T04:18:38;98730.47;;;1.62;100.00
26192;BME280;13935;55.672;37.764;2024-01-25T04:19:43;98725.06;;;1.46;100.00
26192;BME280;13935;55.672;37.764;2024-01-25T04:20:49;98722.22;;;1.58;100.00
26192;BME280;13935;55.672;37.764;2024-01-25T04:21:52;98719.66;;;1.65;100.00
26192;BME280;13935;55.672;37.764;2024-01-25T04:22:55;98721.69;;;1.68;100.00
26192;BME280;13935;55.672;37.764;2024-01-25T04:24:00;98716.72;;;1.55;100.00
26192;BME280;13935;55.672;37.764;2024-01-25T04:25:03;98719.94;;;1.60;100.00
26192;BME280;13935;55.672;37.764;2024-01-25T04:26:06;98719.16;;;1.60;100.00
26192;BME280;13935;55.672;37.764;2024-01-25T04:27:08;98712.22;;;1.62;100.00
26192;BME280;13935;55.672;37.764;2024-01-25T04:28:12;98716.00;;;1.58;100.00
26192;BME280;13935;55.672;37.764;2024-01-25T04:29:16;98715.44;;;1.68;100.00
26192;BME280;13935;55.672;37.764;2024-01-25T04:30:22;98720.19;;;1.71;100.00
26192;BME280;13935;55.672;37.764;2024-01-25T04:31:24;98730.16;;;1.63;100.00
26192;BME280;13935;55.672;37.764;2024-01-25T04:32:26;98730.41;;;1.58;100.00
26192;BME280;13935;55.672;37.764;2024-01-25T04:33:29;98732.50;;;1.65;100.00
26192;BME280;13935;55.672;37.764;2024-01-25T04:34:32;98725.41;;;1.60;100.00
26192;BME280;13935;55.672;37.764;2024-01-25T04:35:36;98729.25;;;1.59;100.00
26192;BME280;13935;55.672;37.764;2024-01-25T04:36:39;98731.56;;;1.57;100.00
26192;BME280;13935;55.672;37.764;2024-01-25T04:37:42;98725.97;;;1.50;100.00
26192;BME280;13935;55.672;37.764;2024-01-25T04:38:45;98724.66;;;1.44;100.00
26192;BME280;13935;55.672;37.764;2024-01-25T04:39:48;98729.09;;;1.52;100.00
26192;BME280;13935;55.672;37.764;2024-01-25T04:40:51;98719.72;;;1.50;100.00
26192;BME280;13935;55.672;37.764;2024-01-25T04:41:53;98728.97;;;1.45;100.00
26192;BME280;13935;55.672;37.764;2024-01-25T04:42:58;98731.03;;;1.52;100.00
26192;BME280;13935;55.672;37.764;2024-01-25T04:44:01;98726.81;;;1.54;100.00
26192;BME280;13935;55.672;37.764;2024-01-25T04:45:06;98726.81;;;1.54;100.00
26192;BME280;13935;55.672;37.764;2024-01-25T04:46:09;98737.91;;;1.46;100.00
26192;BME280;13935;55.672;37.764;2024-01-25T04:47:17;98736.69;;;1.43;100.00
26192;BME280;13935;55.672;37.764;2024-01-25T04:48:19;98725.22;;;1.53;100.00
26192;BME280;13935;55.672;37.764;2024-01-25T04:49:24;98747.28;;;1.64;100.00
26192;BME280;13935;55.672;37.764;2024-01-25T04:50:26;98735.44;;;1.56;100.00
26192;BME280;13935;55.672;37.764;2024-01-25T04:51:30;98737.13;;;1.45;100.00
26192;BME280;13935;55.672;37.764;2024-01-25T04:52:32;98738.34;;;1.48;100.00
26192;BME280;13935;55.672;37.764;2024-01-25T04:53:35;98751.63;;;1.49;100.00
26192;BME280;13935;55.672;37.764;2024-01-25T04:54:37;98745.31;;;1.45;100.00
26192;BME280;13935;55.672;37.764;2024-01-25T04:55:40;98736.84;;;1.50;100.00
26192;BME280;13935;55.672;37.764;2024-01-25T04:56:45;98750.69;;;1.42;100.00
26192;BME280;13935;55.672;37.764;2024-01-25T04:58:09;98744.75;;;1.55;100.00
26192;BME280;13935;55.672;37.764;2024-01-25T04:59:40;98741.78;;;1.45;100.00
26192;BME280;13935;55.672;37.764;2024-01-25T05:00:45;98742.06;;;1.40;100.00
26192;BME280;13935;55.672;37.764;2024-01-25T05:02:17;98744.41;;;1.41;100.00
26192;BME280;13935;55.672;37.764;2024-01-25T05:03:23;98748.91;;;1.34;100.00
26192;BME280;13935;55.672;37.764;2024-01-25T05:04:25;98732.50;;;1.31;100.00
26192;BME280;13935;55.672;37.764;2024-01-25T05:05:28;98738.03;;;1.34;100.00
26192;BME280;13935;55.672;37.764;2024-01-25T05:06:31;98746.38;;;1.26;100.00
26192;BME280;13935;55.672;37.764;2024-01-25T05:07:37;98735.38;;;1.38;100.00
26192;BME280;13935;55.672;37.764;2024-01-25T05:08:50;98731.53;;;1.39;100.00
26192;BME280;13935;55.672;37.764;2024-01-25T05:09:53;98735.09;;;1.42;100.00
26192;BME280;13935;55.672;37.764;2024-01-25T05:10:57;98737.94;;;1.31;100.00
26192;BME280;13935;55.672;37.764;2024-01-25T05:12:27;98733.25;;;1.46;100.00
26192;BME280;13935;55.672;37.764;2024-01-25T05:13:30;98735.09;;;1.42;100.00
26192;BME280;13935;55.672;37.764;2024-01-25T05:14:48;98736.97;;;1.39;100.00
26192;BME280;13935;55.672;37.764;2024-01-25T05:15:53;98742.25;;;1.32;100.00
26192;BME280;13935;55.672;37.764;2024-01-25T05:16:55;98737.75;;;1.39;100.00
26192;BME280;13935;55.672;37.764;2024-01-25T05:18:02;98740.22;;;1.29;100.00
26192;BME280;13935;55.672;37.764;2024-01-25T05:19:06;98739.69;;;1.39;100.00
26192;BME280;13935;55.672;37.764;2024-01-25T05:20:11;98740.56;;;1.42;100.00
26192;BME280;13935;55.672;37.764;2024-01-25T05:21:16;98740.81;;;1.53;100.00
26192;BME280;13935;55.672;37.764;2024-01-25T05:22:22;98740.38;;;1.36;100.00
26192;BME280;13935;55.672;37.764;2024-01-25T05:23:26;98729.00;;;1.30;100.00
26192;BME280;13935;55.672;37.764;2024-01-25T05:24:33;98736.53;;;1.37;100.00
26192;BME280;13935;55.672;37.764;2024-01-25T05:25:37;98732.59;;;1.34;100.00
26192;BME280;13935;55.672;37.764;2024-01-25T05:26:41;98731.72;;;1.30;100.00
26192;BME280;13935;55.672;37.764;2024-01-25T05:27:44;98729.41;;;1.32;100.00
26192;BME280;13935;55.672;37.764;2024-01-25T05:28:48;98731.69;;;1.45;100.00
26192;BME280;13935;55.672;37.764;2024-01-25T05:29:55;98735.09;;;1.42;100.00
26192;BME280;13935;55.672;37.764;2024-01-25T05:31:01;98737.38;;;1.40;100.00
26192;BME280;13935;55.672;37.764;2024-01-25T05:32:08;98740.13;;;1.25;100.00
26192;BME280;13935;55.672;37.764;2024-01-25T05:33:19;98735.78;;;1.21;100.00
26192;BME280;13935;55.672;37.764;2024-01-25T05:34:24;98737.00;;;1.23;100.00
26192;BME280;13935;55.672;37.764;2024-01-25T05:35:35;98742.34;;;1.35;100.00
26192;BME280;13935;55.672;37.764;2024-01-25T05:36:41;98735.50;;;1.26;100.00
26192;BME280;13935;55.672;37.764;2024-01-25T05:37:48;98736.69;;;1.43;100.00
26192;BME280;13935;55.672;37.764;2024-01-25T05:38:51;98733.81;;;1.37;100.00
26192;BME280;13935;55.672;37.764;2024-01-25T05:39:57;98735.09;;;1.42;100.00
26192;BME280;13935;55.672;37.764;2024-01-25T05:41:07;98734.44;;;1.30;100.00
26192;BME280;13935;55.672;37.764;2024-01-25T05:42:19;98737.22;;;1.34;100.00
26192;BME280;13935;55.672;37.764;2024-01-25T05:43:39;98725.31;;;1.23;100.00
26192;BME280;13935;55.672;37.764;2024-01-25T05:44:42;98723.88;;;1.29;100.00
26192;BME280;13935;55.672;37.764;2024-01-25T05:45:49;98726.03;;;1.20;100.00
26192;BME280;13935;55.672;37.764;2024-01-25T05:46:53;98726.97;;;1.27;100.00
26192;BME280;13935;55.672;37.764;2024-01-25T05:48:00;98728.09;;;1.26;100.00
26192;BME280;13935;55.672;37.764;2024-01-25T05:49:15;98723.09;;;1.28;100.00
26192;BME280;13935;55.672;37.764;2024-01-25T05:50:38;98728.47;;;1.25;100.00
26192;BME280;13935;55.672;37.764;2024-01-25T05:51:51;98730.31;;;1.36;100.00
26192;BME280;13935;55.672;37.764;2024-01-25T05:53:00;98729.59;;;1.24;100.00
26192;BME280;13935;55.672;37.764;2024-01-25T05:54:06;98736.81;;;1.16;100.00
26192;BME280;13935;55.672;37.764;2024-01-25T05:55:08;98728.56;;;1.28;100.00
26192;BME280;13935;55.672;37.764;2024-01-25T05:56:11;98731.28;;;1.28;100.00
26192;BME280;13935;55.672;37.764;2024-01-25T05:57:14;98729.97;;;1.22;100.00
26192;BME280;13935;55.672;37.764;2024-01-25T05:58:16;98724.16;;;1.24;100.00
26192;BME280;13935;55.672;37.764;2024-01-25T05:59:25;98734.34;;;1.27;100.00
26192;BME280;13935;55.672;37.764;2024-01-25T06:00:32;98721.53;;;1.27;100.00
26192;BME280;13935;55.672;37.764;2024-01-25T06:01:35;98733.53;;;1.41;100.00
26192;BME280;13935;55.672;37.764;2024-01-25T06:02:43;98732.72;;;1.56;100.00
26192;BME280;13935;55.672;37.764;2024-01-25T06:03:48;98723.94;;;1.47;100.00
26192;BME280;13935;55.672;37.764;2024-01-25T06:04:52;98737.31;;;1.37;100.00
26192;BME280;13935;55.672;37.764;2024-01-25T06:06:11;98724.41;;;1.34;100.00
26192;BME280;13935;55.672;37.764;2024-01-25T06:07:27;98721.84;;;1.41;100.00
26192;BME280;13935;55.672;37.764;2024-01-25T06:08:47;98723.47;;;1.27;100.00
26192;BME280;13935;55.672;37.764;2024-01-25T06:10:06;98726.50;;;1.40;100.00
26192;BME280;13935;55.672;37.764;2024-01-25T06:11:20;98720.56;;;1.35;100.00
26192;BME280;13935;55.672;37.764;2024-01-25T06:12:26;98715.50;;;1.37;100.00
26192;BME280;13935;55.672;37.764;2024-01-25T06:13:37;98720.75;;;1.27;100.00
26192;BME280;13935;55.672;37.764;2024-01-25T06:14:43;98725.31;;;1.23;100.00
26192;BME280;13935;55.672;37.764;2024-01-25T06:15:54;98728.47;;;1.25;100.00
26192;BME280;13935;55.672;37.764;2024-01-25T06:17:51;98710.56;;;1.24;100.00
26192;BME280;13935;55.672;37.764;2024-01-25T06:19:04;98714.13;;;1.28;100.00
26192;BME280;13935;55.672;37.764;2024-01-25T06:20:23;98711.66;;;1.38;100.00
26192;BME280;13935;55.672;37.764;2024-01-25T06:22:23;98708.97;;;1.23;100.00
26192;BME280;13935;55.672;37.764;2024-01-25T06:23:28;98709.69;;;1.20;100.00
26192;BME280;13935;55.672;37.764;2024-01-25T06:24:34;98723.72;;;1.22;100.00
26192;BME280;13935;55.672;37.764;2024-01-25T06:25:38;98709.13;;;1.30;100.00
26192;BME280;13935;55.672;37.764;2024-01-25T06:26:43;98713.06;;;1.32;100.00
26192;BME280;13935;55.672;37.764;2024-01-25T06:28:14;98717.75;;;1.32;100.00
26192;BME280;13935;55.672;37.764;2024-01-25T06:29:30;98718.75;;;1.42;100.00
26192;BME280;13935;55.672;37.764;2024-01-25T06:30:46;98717.91;;;1.39;100.00
26192;BME280;13935;55.672;37.764;2024-01-25T06:31:54;98724.13;;;1.39;100.00
26192;BME280;13935;55.672;37.764;2024-01-25T06:32:56;98719.34;;;1.33;100.00
26192;BME280;13935;55.672;37.764;2024-01-25T06:33:59;98724.22;;;1.42;100.00
26192;BME280;13935;55.672;37.764;2024-01-25T06:35:01;98714.00;;;1.39;100.00
26192;BME280;13935;55.672;37.764;2024-01-25T06:36:05;98718.69;;;1.39;100.00
26192;BME280;13935;55.672;37.764;2024-01-25T06:37:08;98717.34;;;1.48;100.00
26192;BME280;13935;55.672;37.764;2024-01-25T06:38:13;98710.75;;;1.49;100.00
26192;BME280;13935;55.672;37.764;2024-01-25T06:39:15;98711.72;;;1.41;100.00
26192;BME280;13935;55.672;37.764;2024-01-25T06:40:17;98713.88;;;1.33;100.00
26192;BME280;13935;55.672;37.764;2024-01-25T06:41:28;98727.50;;;1.33;100.00
26192;BME280;13935;55.672;37.764;2024-01-25T06:42:31;98713.97;;;1.36;100.00
26192;BME280;13935;55.672;37.764;2024-01-25T06:43:34;98717.78;;;1.50;100.00
26192;BME280;13935;55.672;37.764;2024-01-25T06:44:37;98708.56;;;1.39;100.00
26192;BME280;13935;55.672;37.764;2024-01-25T06:45:41;98708.22;;;1.41;100.00
26192;BME280;13935;55.672;37.764;2024-01-25T06:46:44;98715.34;;;1.45;100.00
26192;BME280;13935;55.672;37.764;2024-01-25T06:47:46;98719.38;;;1.51;100.00
26192;BME280;13935;55.672;37.764;2024-01-25T06:48:55;98706.59;;;1.55;100.00
26192;BME280;13935;55.672;37.764;2024-01-25T06:49:58;98712.63;;;1.45;100.00
26192;BME280;13935;55.672;37.764;2024-01-25T06:51:00;98710.47;;;1.54;100.00
26192;BME280;13935;55.672;37.764;2024-01-25T06:52:09;98717.19;;;1.41;100.00
26192;BME280;13935;55.672;37.764;2024-01-25T06:53:15;98711.72;;;1.41;100.00
26192;BME280;13935;55.672;37.764;2024-01-25T06:54:18;98717.50;;;1.55;100.00
26192;BME280;13935;55.672;37.764;2024-01-25T06:55:20;98719.72;;;1.50;100.00
26192;BME280;13935;55.672;37.764;2024-01-25T06:56:23;98713.94;;;1.51;100.00
26192;BME280;13935;55.672;37.764;2024-01-25T06:57:25;98716.66;;;1.51;100.00
26192;BME280;13935;55.672;37.764;2024-01-25T06:58:29;98712.50;;;1.57;100.00
26192;BME280;13935;55.672;37.764;2024-01-25T06:59:32;98711.28;;;1.39;100.00
26192;BME280;13935;55.672;37.764;2024-01-25T07:00:38;98718.59;;;1.36;100.00
26192;BME280;13935;55.672;37.764;2024-01-25T07:01:41;98715.75;;;1.47;100.00
26192;BME280;13935;55.672;37.764;2024-01-25T07:02:43;98716.22;;;1.49;100.00
26192;BME280;13935;55.672;37.764;2024-01-25T07:03:47;98720.50;;;1.50;100.00
26192;BME280;13935;55.672;37.764;2024-01-25T07:04:53;98728.25;;;1.48;100.00
26192;BME280;13935;55.672;37.764;2024-01-25T07:05:57;98720.50;;;1.50;100.00
26192;BME280;13935;55.672;37.764;2024-01-25T07:07:01;98718.75;;;1.42;100.00
26192;BME280;13935;55.672;37.764;2024-01-25T07:08:05;98725.78;;;1.43;100.00
26192;BME280;13935;55.672;37.764;2024-01-25T07:09:09;98727.38;;;1.44;100.00
26192;BME280;13935;55.672;37.764;2024-01-25T07:10:13;98723.44;;;1.42;100.00
26192;BME280;13935;55.672;37.764;2024-01-25T07:11:16;98725.47;;;1.30;100.00
26192;BME280;13935;55.672;37.764;2024-01-25T07:12:19;98724.75;;;1.48;100.00
26192;BME280;13935;55.672;37.764;2024-01-25T07:13:28;98731.09;;;1.37;100.00
26192;BME280;13935;55.672;37.764;2024-01-25T07:14:37;98725.88;;;1.47;100.00
26192;BME280;13935;55.672;37.764;2024-01-25T07:15:40;98727.31;;;1.41;100.00
26192;BME280;13935;55.672;37.764;2024-01-25T07:16:43;98727.47;;;1.48;100.00
26192;BME280;13935;55.672;37.764;2024-01-25T07:17:45;98722.53;;;1.72;100.00
26192;BME280;13935;55.672;37.764;2024-01-25T07:18:48;98717.16;;;1.76;100.00
26192;BME280;13935;55.672;37.764;2024-01-25T07:19:57;98721.53;;;1.61;100.00
26192;BME280;13935;55.672;37.764;2024-01-25T07:21:13;98730.75;;;1.57;100.00
26192;BME280;13935;55.672;37.764;2024-01-25T07:22:16;98722.00;;;1.48;100.00
26192;BME280;13935;55.672;37.764;2024-01-25T07:23:21;98721.44;;;1.58;100.00
26192;BME280;13935;55.672;37.764;2024-01-25T07:24:25;98714.38;;;1.72;100.00
26192;BME280;13935;55.672;37.764;2024-01-25T07:25:29;98720.25;;;1.74;100.00
26192;BME280;13935;55.672;37.764;2024-01-25T07:26:37;98716.38;;;1.75;100.00
26192;BME280;13935;55.672;37.764;2024-01-25T07:27:53;98719.94;;;1.60;100.00
26192;BME280;13935;55.672;37.764;2024-01-25T07:32:41;98712.84;;;1.56;100.00
26192;BME280;13935;55.672;37.764;2024-01-25T07:35:03;98719.44;;;1.55;100.00
26192;BME280;13935;55.672;37.764;2024-01-25T07:36:17;98720.06;;;1.48;100.00
26192;BME280;13935;55.672;37.764;2024-01-25T07:37:32;98724.66;;;1.44;100.00
26192;BME280;13935;55.672;37.764;2024-01-25T07:38:35;98721.97;;;1.63;100.00
26192;BME280;13935;55.672;37.764;2024-01-25T07:39:38;98711.28;;;1.39;100.00
26192;BME280;13935;55.672;37.764;2024-01-25T07:40:47;98725.88;;;1.47;100.00
26192;BME280;13935;55.672;37.764;2024-01-25T07:41:49;98715.59;;;1.40;100.00
26192;BME280;13935;55.672;37.764;2024-01-25T07:42:56;98713.56;;;1.53;100.00
26192;BME280;13935;55.672;37.764;2024-01-25T07:44:01;98720.59;;;1.54;100.00
26192;BME280;13935;55.672;37.764;2024-01-25T07:45:04;98722.78;;;1.48;100.00
26192;BME280;13935;55.672;37.764;2024-01-25T08:02:01;98728.19;;;1.30;100.00
26192;BME280;13935;55.672;37.764;2024-01-25T08:03:04;98729.31;;;1.29;100.00
26192;BME280;13935;55.672;37.764;2024-01-25T08:04:07;98724.31;;;1.31;100.00
26192;BME280;13935;55.672;37.764;2024-01-25T08:05:11;98722.53;;;1.38;100.00
26192;BME280;13935;55.672;37.764;2024-01-25T08:06:13;98723.88;;;1.29;100.00
26192;BME280;13935;55.672;37.764;2024-01-25T08:07:18;98718.28;;;1.22;100.00
26192;BME280;13935;55.672;37.764;2024-01-25T08:08:22;98718.53;;;1.32;100.00
26192;BME280;13935;55.672;37.764;2024-01-25T08:09:24;98714.47;;;1.41;100.00
26192;BME280;13935;55.672;37.764;2024-01-25T08:10:26;98733.78;;;1.52;100.00
26192;BME280;13935;55.672;37.764;2024-01-25T08:11:30;98717.19;;;1.41;100.00
26192;BME280;13935;55.672;37.764;2024-01-25T08:12:32;98726.06;;;1.39;100.00
26192;BME280;13935;55.672;37.764;2024-01-25T08:13:35;98729.31;;;1.29;100.00
26192;BME280;13935;55.672;37.764;2024-01-25T08:14:38;98720.75;;;1.27;100.00
26192;BME280;13935;55.672;37.764;2024-01-25T08:15:40;98718.53;;;1.32;100.00
26192;BME280;13935;55.672;37.764;2024-01-25T08:16:47;98731.09;;;1.37;100.00
26192;BME280;13935;55.672;37.764;2024-01-25T08:17:51;98714.56;;;1.30;100.00
26192;BME280;13935;55.672;37.764;2024-01-25T08:18:54;98719.16;;;1.26;100.00
26192;BME280;13935;55.672;37.764;2024-01-25T08:19:57;98717.31;;;1.30;100.00
26192;BME280;13935;55.672;37.764;2024-01-25T08:21:01;98730.22;;;1.33;100.00
26192;BME280;13935;55.672;37.764;2024-01-25T08:22:07;98718.84;;;1.46;100.00
26192;BME280;13935;55.672;37.764;2024-01-25T08:23:09;98728.25;;;1.48;100.00
26192;BME280;13935;55.672;37.764;2024-01-25T08:24:13;98726.03;;;1.54;100.00
26192;BME280;13935;55.672;37.764;2024-01-25T08:25:19;98724.25;;;1.61;100.00
26192;BME280;13935;55.672;37.764;2024-01-25T08:26:23;98725.34;;;1.41;100.00
26192;BME280;13935;55.672;37.764;2024-01-25T08:27:31;98719.78;;;1.53;100.00
26192;BME280;13935;55.672;37.764;2024-01-25T08:28:35;98721.03;;;1.40;100.00